地図

経路データ

SID SEASON NUMBER BASIN SUBBASIN NAME ISO_TIME NATURE LAT LON WMO_WIND WMO_PRES WMO_AGENCY TRACK_TYPE DIST2LAND LANDFALL IFLAG USA_AGENCY USA_ATCF_ID USA_LAT USA_LON USA_RECORD USA_STATUS USA_WIND USA_PRES USA_SSHS USA_R34_NE USA_R34_SE USA_R34_SW USA_R34_NW USA_R50_NE USA_R50_SE USA_R50_SW USA_R50_NW USA_R64_NE USA_R64_SE USA_R64_SW USA_R64_NW USA_POCI USA_ROCI USA_RMW USA_EYE TOKYO_LAT TOKYO_LON TOKYO_GRADE TOKYO_WIND TOKYO_PRES TOKYO_R50_DIR TOKYO_R50_LONG TOKYO_R50_SHORT TOKYO_R30_DIR TOKYO_R30_LONG TOKYO_R30_SHORT TOKYO_LAND CMA_LAT CMA_LON CMA_CAT CMA_WIND CMA_PRES HKO_LAT HKO_LON HKO_CAT HKO_WIND HKO_PRES NEWDELHI_LAT NEWDELHI_LON NEWDELHI_GRADE NEWDELHI_WIND NEWDELHI_PRES NEWDELHI_CI NEWDELHI_DP NEWDELHI_POCI REUNION_LAT REUNION_LON REUNION_TYPE REUNION_WIND REUNION_PRES REUNION_TNUM REUNION_CI REUNION_RMW REUNION_R34_NE REUNION_R34_SE REUNION_R34_SW REUNION_R34_NW REUNION_R50_NE REUNION_R50_SE REUNION_R50_SW REUNION_R50_NW REUNION_R64_NE REUNION_R64_SE REUNION_R64_SW REUNION_R64_NW BOM_LAT BOM_LON BOM_TYPE BOM_WIND BOM_PRES BOM_TNUM BOM_CI BOM_RMW BOM_R34_NE BOM_R34_SE BOM_R34_SW BOM_R34_NW BOM_R50_NE BOM_R50_SE BOM_R50_SW BOM_R50_NW BOM_R64_NE BOM_R64_SE BOM_R64_SW BOM_R64_NW BOM_ROCI BOM_POCI BOM_EYE BOM_POS_METHOD BOM_PRES_METHOD NADI_LAT NADI_LON NADI_CAT NADI_WIND NADI_PRES WELLINGTON_LAT WELLINGTON_LON WELLINGTON_WIND WELLINGTON_PRES DS824_LAT DS824_LON DS824_STAGE DS824_WIND DS824_PRES TD9636_LAT TD9636_LON TD9636_STAGE TD9636_WIND TD9636_PRES TD9635_LAT TD9635_LON TD9635_WIND TD9635_PRES TD9635_ROCI NEUMANN_LAT NEUMANN_LON NEUMANN_CLASS NEUMANN_WIND NEUMANN_PRES MLC_LAT MLC_LON MLC_CLASS MLC_WIND MLC_PRES USA_GUST BOM_GUST BOM_GUST_PER REUNION_GUST REUNION_GUST_PER USA_SEAHGT USA_SEARAD_NE USA_SEARAD_SE USA_SEARAD_SW USA_SEARAD_NW STORM_SPEED STORM_DIR
1983270N28287 1983 60 NA NA DEAN 1983-09-26 18:00:00 SS 28.0000 -73.0000 35 1010 hurdat_atl main 593 593 O_____________ hurdat_atl AL061983 28.0000 -73.0000 SS 35 1010 -2 5 9
1983270N28287 1983 60 NA NA DEAN 1983-09-26 21:00:00 SS 28.2500 -72.9476 main 619 619 P_____________ AL061983 28.2500 -72.9476 SS 35 1009 -2 5 10
1983270N28287 1983 60 NA NA DEAN 1983-09-27 00:00:00 SS 28.5000 -72.9000 35 1009 hurdat_atl main 632 632 O_____________ hurdat_atl AL061983 28.5000 -72.9000 SS 35 1009 -2 5 9
1983270N28287 1983 60 NA NA DEAN 1983-09-27 03:00:00 SS 28.7500 -72.8574 main 645 645 P_____________ AL061983 28.7500 -72.8574 SS 37 1007 -2 5 10
1983270N28287 1983 60 NA NA DEAN 1983-09-27 06:00:00 SS 29.0000 -72.8000 40 1006 hurdat_atl main 673 673 O_____________ hurdat_atl AL061983 29.0000 -72.8000 SS 40 1006 -2 5 13
1983270N28287 1983 60 NA NA DEAN 1983-09-27 09:00:00 SS 29.2274 -72.7297 main 695 686 P_____________ AL061983 29.2274 -72.7297 SS 40 1004 -2 5 19
1983270N28287 1983 60 NA NA DEAN 1983-09-27 12:00:00 SS 29.5000 -72.6000 40 1003 hurdat_atl main 686 668 O_____________ hurdat_atl AL061983 29.5000 -72.6000 SS 40 1003 -2 7 26
1983270N28287 1983 60 NA NA DEAN 1983-09-27 15:00:00 SS 29.8701 -72.3652 main 659 640 P_____________ AL061983 29.8701 -72.3652 SS 40 1001 -2 9 28
1983270N28287 1983 60 NA NA DEAN 1983-09-27 18:00:00 TS 30.3000 -72.1000 40 1000 hurdat_atl main 640 619 O_____________ hurdat_atl AL061983 30.3000 -72.1000 TS 40 1000 0 10 25
1983270N28287 1983 60 NA NA DEAN 1983-09-27 21:00:00 TS 30.7349 -71.9070 main 619 593 P_____________ AL061983 30.7349 -71.9070 TS 42 999 0 10 21
1983270N28287 1983 60 NA NA DEAN 1983-09-28 00:00:00 TS 31.2000 -71.7000 45 999 hurdat_atl main 593 577 O_____________ hurdat_atl AL061983 31.2000 -71.7000 TS 45 999 0 11 24
1983270N28287 1983 60 NA NA DEAN 1983-09-28 03:00:00 TS 31.7001 -71.4003 main 577 565 P_____________ AL061983 31.7001 -71.4003 TS 45 999 0 11 27
1983270N28287 1983 60 NA NA DEAN 1983-09-28 06:00:00 TS 32.2000 -71.1000 45 999 hurdat_atl main 567 552 O_____________ hurdat_atl AL061983 32.2000 -71.1000 TS 45 999 0 11 26
1983270N28287 1983 60 NA NA DEAN 1983-09-28 09:00:00 TS 32.6575 -70.8550 main 545 532 P_____________ AL061983 32.6575 -70.8550 TS 47 999 0 10 20
1983270N28287 1983 60 NA NA DEAN 1983-09-28 12:00:00 TS 33.1000 -70.7000 50 1000 hurdat_atl main 532 501 O_____________ hurdat_atl AL061983 33.1000 -70.7000 TS 50 1000 0 9 10
1983270N28287 1983 60 NA NA DEAN 1983-09-28 15:00:00 TS 33.5799 -70.6621 main 501 480 P_____________ AL061983 33.5799 -70.6621 TS 50 1000 0 9 0
1983270N28287 1983 60 NA NA DEAN 1983-09-28 18:00:00 TS 34.0000 -70.7000 50 1001 hurdat_atl main 480 466 O_____________ hurdat_atl AL061983 34.0000 -70.7000 TS 50 1001 0 7 355
1983270N28287 1983 60 NA NA DEAN 1983-09-28 21:00:00 TS 34.2950 -70.7350 main 466 450 P_____________ AL061983 34.2950 -70.7350 TS 52 1002 0 5 351
1983270N28287 1983 60 NA NA DEAN 1983-09-29 00:00:00 TS 34.5000 -70.8000 55 1003 hurdat_atl main 450 434 O_____________ hurdat_atl AL061983 34.5000 -70.8000 TS 55 1003 0 4 344
1983270N28287 1983 60 NA NA DEAN 1983-09-29 03:00:00 TS 34.6649 -70.8701 main 434 422 P_____________ AL061983 34.6649 -70.8701 TS 55 1004 0 3 332
1983270N28287 1983 60 NA NA DEAN 1983-09-29 06:00:00 TS 34.8000 -71.0000 55 1005 hurdat_atl main 422 410 O_____________ hurdat_atl AL061983 34.8000 -71.0000 TS 55 1005 0 3 318
1983270N28287 1983 60 NA NA DEAN 1983-09-29 09:00:00 TS 34.9193 -71.1536 main 401 369 P_____________ AL061983 34.9193 -71.1536 TS 55 1005 0 5 306
1983270N28287 1983 60 NA NA DEAN 1983-09-29 12:00:00 TS 35.1000 -71.5000 55 1006 hurdat_atl main 369 300 O_____________ hurdat_atl AL061983 35.1000 -71.5000 TS 55 1006 0 10 300
1983270N28287 1983 60 NA NA DEAN 1983-09-29 15:00:00 TS 35.4287 -72.2111 main 300 224 P_____________ AL061983 35.4287 -72.2111 TS 55 1006 0 14 300
1983270N28287 1983 60 NA NA DEAN 1983-09-29 18:00:00 TS 35.8000 -73.0000 55 1007 hurdat_atl main 224 182 O_____________ hurdat_atl AL061983 35.8000 -73.0000 TS 55 1007 0 13 302
1983270N28287 1983 60 NA NA DEAN 1983-09-29 21:00:00 TS 36.1068 -73.5459 main 182 149 P_____________ AL061983 36.1068 -73.5459 TS 55 1007 0 10 307
1983270N28287 1983 60 NA NA DEAN 1983-09-30 00:00:00 TS 36.4000 -74.0000 55 1008 hurdat_atl main 149 124 O_____________ hurdat_atl AL061983 36.4000 -74.0000 TS 55 1008 0 9 309
1983270N28287 1983 60 NA NA DEAN 1983-09-30 03:00:00 TS 36.7072 -74.4578 main 120 89 P_____________ AL061983 36.7072 -74.4578 TS 55 1008 0 9 310
1983270N28287 1983 60 NA NA DEAN 1983-09-30 06:00:00 TS 37.0000 -74.9000 55 1009 hurdat_atl main 89 41 O_____________ hurdat_atl AL061983 37.0000 -74.9000 TS 55 1009 0 9 309
1983270N28287 1983 60 NA NA DEAN 1983-09-30 09:00:00 TS 37.2646 -75.3354 main 41 0 P_____________ AL061983 37.2646 -75.3354 TS 47 1009 0 9 305
1983270N28287 1983 60 NA NA DEAN 1983-09-30 12:00:00 TS 37.5000 -75.8000 40 1010 hurdat_atl main 0 0 O_____________ hurdat_atl AL061983 37.5000 -75.8000 TS 40 1010 0 9 299
1983270N28287 1983 60 NA NA DEAN 1983-09-30 15:00:00 TS 37.7082 -76.3294 main 8 0 P_____________ AL061983 37.7082 -76.3294 TS 35 1012 0 10 295
1983270N28287 1983 60 NA NA DEAN 1983-09-30 18:00:00 TS 37.9000 -76.9000 30 1015 hurdat_atl main 0 O_____________ hurdat_atl AL061983 37.9000 -76.9000 TD 30 1015 -1 10 293

IBTrACS Databaseについて

本データベースは、米国NOAAが公開する1842年以降の世界の熱帯低気圧のベストトラックデータアーカイブInternational Best Track Archive for Climate Stewardship (IBTrACS)を、ウェブで閲覧しやすい形式に変換したものです。

最終更新日:2021-10-08